Reardan, WA (99029)

9:56 AM PDT on April 01, 2015 (GMT -0700)
Four Mound Prairie | | Change Station
CLOSE
Current Station
Personal Weather Station
Location: Reardan, WA
Elevation: 2452 ft
Nearby Weather Stations

Elev 2452 ft 47.78 °N, 117.73 °W | Updated 0 second ago

Mostly Cloudy
Mostly Cloudy
43.3 °F
Feels Like 38 °F
N
9.2
Wind Variable Wind from South
Gusts 13.0 mph

Today
High -- | Low -- °F
--% Chance of Precip.
Yesterday
High -- | Low -- °F
Precip. -- in
6:29 AM 7:20 PM
Waxing Gibbous, 93% visible
Pressure 30.10 in
Visibility 10.0 miles
Clouds Overcast 6500 ft
Windchill 38 °F
Dew Point 31 °F
Humidity 61%
Rainfall 0.00 in
Snow Depth Not available.
UV 1 out of 12
Pollen 9.60 out of 12
Air Quality Not available.
Flu Activity Not available.
SPECI KSKA 011624Z AUTO 21010KT 10SM OVC065 03/00 A3010 RMK AO2 UPB11E24

More Conditions Fewer Conditions

Pressure 30.10 in
Visibility 10.0 miles
Clouds Overcast 6500 ft
Windchill 38 °F
Dew Point 31 °F
Humidity 61%
Rainfall 0.00 in
Snow Depth Not available.
UV 1 out of 12
Pollen 9.60 out of 12
Air Quality Not available.
Flu Activity Not available.
SPECI KSKA 011624Z AUTO 21010KT 10SM OVC065 03/00 A3010 RMK AO2 UPB11E24

More Conditions Fewer Conditions

10-Day Weather Forecast

Almanac

Astronomy

Apr. 01, 2015 Rise Set
Actual Time
Civil Twilight
Nautical Twilight
Astronomical Twilight
Moon
Length of Visible Light
Length of Day
Tomorrow will be .
, % of the Moon is Illuminated

Today's Extremes

State Highs State Lows

Community

WunderPhotos

Upload Photos

1,810,005 photos uploaded!

WunderBlogs® & News

Nearby

Air Quality

  Air Quality AQ Index Pollutant
Not available.

Snow Depth

Station Depth Elevation

Earthquake Activity

City Distance Mag. Time & Date
Minimum magnitude displayed is 2.5.

Coastal Water Temperatures

Place Temperature

Stations

Nearby Weather Stations

Station Location Temp. Windchill Dew Point Humidity Wind Precip. Elev Updated Type